sensor_id;sensor_type;location;lat;lon;timestamp;temperature;humidity
12470;DHT22;36499;46.484;13.832;2023-05-10T00:00:09;8.30;99.90
12470;DHT22;36499;46.484;13.832;2023-05-10T00:02:36;8.30;99.90
12470;DHT22;36499;46.484;13.832;2023-05-10T00:05:06;8.30;99.90
12470;DHT22;36499;46.484;13.832;2023-05-10T00:07:34;8.30;99.90
12470;DHT22;36499;46.484;13.832;2023-05-10T00:10:01;8.20;99.90
12470;DHT22;36499;46.484;13.832;2023-05-10T00:12:28;8.20;99.90
12470;DHT22;36499;46.484;13.832;2023-05-10T00:14:55;8.20;99.90
12470;DHT22;36499;46.484;13.832;2023-05-10T00:17:22;8.20;99.90
12470;DHT22;36499;46.484;13.832;2023-05-10T00:19:49;8.20;99.90
12470;DHT22;36499;46.484;13.832;2023-05-10T00:22:17;8.20;99.90
12470;DHT22;36499;46.484;13.832;2023-05-10T00:24:44;8.20;99.90
12470;DHT22;36499;46.484;13.832;2023-05-10T00:27:11;8.20;99.90
12470;DHT22;36499;46.484;13.832;2023-05-10T00:29:38;8.20;99.90
12470;DHT22;36499;46.484;13.832;2023-05-10T00:32:05;8.20;99.90
12470;DHT22;36499;46.484;13.832;2023-05-10T00:34:33;8.20;99.90
12470;DHT22;36499;46.484;13.832;2023-05-10T00:37:00;8.20;99.90
12470;DHT22;36499;46.484;13.832;2023-05-10T00:39:29;8.10;99.90
12470;DHT22;36499;46.484;13.832;2023-05-10T00:41:56;8.10;99.90
12470;DHT22;36499;46.484;13.832;2023-05-10T00:44:23;8.10;99.90
12470;DHT22;36499;46.484;13.832;2023-05-10T00:46:51;8.10;99.90
12470;DHT22;36499;46.484;13.832;2023-05-10T00:49:19;8.00;99.90
12470;DHT22;36499;46.484;13.832;2023-05-10T00:51:47;8.10;99.90
12470;DHT22;36499;46.484;13.832;2023-05-10T00:54:15;8.00;99.90
12470;DHT22;36499;46.484;13.832;2023-05-10T00:56:44;8.00;99.90
12470;DHT22;36499;46.484;13.832;2023-05-10T00:59:14;8.00;99.90
12470;DHT22;36499;46.484;13.832;2023-05-10T01:01:43;8.10;99.90
12470;DHT22;36499;46.484;13.832;2023-05-10T01:04:12;8.10;99.90
12470;DHT22;36499;46.484;13.832;2023-05-10T01:06:40;8.10;99.90
12470;DHT22;36499;46.484;13.832;2023-05-10T01:09:07;8.10;99.90
12470;DHT22;36499;46.484;13.832;2023-05-10T01:11:35;8.10;99.90
12470;DHT22;36499;46.484;13.832;2023-05-10T01:14:06;8.20;99.90
12470;DHT22;36499;46.484;13.832;2023-05-10T01:16:37;8.20;99.90
12470;DHT22;36499;46.484;13.832;2023-05-10T01:19:08;8.30;99.90
12470;DHT22;36499;46.484;13.832;2023-05-10T01:21:49;8.30;99.90
12470;DHT22;36499;46.484;13.832;2023-05-10T01:24:43;8.30;99.90
12470;DHT22;36499;46.484;13.832;2023-05-10T01:28:03;8.30;99.90
12470;DHT22;36499;46.484;13.832;2023-05-10T01:31:08;8.40;99.90
12470;DHT22;36499;46.484;13.832;2023-05-10T01:33:55;8.40;99.90
12470;DHT22;36499;46.484;13.832;2023-05-10T01:36:29;8.40;99.90
12470;DHT22;36499;46.484;13.832;2023-05-10T01:39:02;8.40;99.90
12470;DHT22;36499;46.484;13.832;2023-05-10T01:41:41;8.40;99.90
12470;DHT22;36499;46.484;13.832;2023-05-10T01:44:20;8.40;99.90
12470;DHT22;36499;46.484;13.832;2023-05-10T01:47:00;8.40;99.90
12470;DHT22;36499;46.484;13.832;2023-05-10T01:49:39;8.40;99.90
12470;DHT22;36499;46.484;13.832;2023-05-10T01:52:10;8.40;99.90
12470;DHT22;36499;46.484;13.832;2023-05-10T01:54:49;8.40;99.90
12470;DHT22;36499;46.484;13.832;2023-05-10T01:57:22;8.40;99.90
12470;DHT22;36499;46.484;13.832;2023-05-10T01:59:55;8.40;99.90
12470;DHT22;36499;46.484;13.832;2023-05-10T02:02:24;8.50;99.90
12470;DHT22;36499;46.484;13.832;2023-05-10T02:04:56;8.40;99.90
12470;DHT22;36499;46.484;13.832;2023-05-10T02:07:25;8.50;99.90
12470;DHT22;36499;46.484;13.832;2023-05-10T02:09:53;8.40;99.90
12470;DHT22;36499;46.484;13.832;2023-05-10T02:12:23;8.40;99.90
12470;DHT22;36499;46.484;13.832;2023-05-10T02:14:53;8.40;99.90
12470;DHT22;36499;46.484;13.832;2023-05-10T02:17:21;8.40;99.90
12470;DHT22;36499;46.484;13.832;2023-05-10T02:19:51;8.40;99.90
12470;DHT22;36499;46.484;13.832;2023-05-10T02:22:23;8.40;99.90
12470;DHT22;36499;46.484;13.832;2023-05-10T02:24:51;8.40;99.90
12470;DHT22;36499;46.484;13.832;2023-05-10T02:27:19;8.40;99.90
12470;DHT22;36499;46.484;13.832;2023-05-10T02:29:50;8.40;99.90
12470;DHT22;36499;46.484;13.832;2023-05-10T02:32:18;8.40;99.90
12470;DHT22;36499;46.484;13.832;2023-05-10T02:34:46;8.40;99.90
12470;DHT22;36499;46.484;13.832;2023-05-10T02:37:19;8.40;99.90
12470;DHT22;36499;46.484;13.832;2023-05-10T02:39:49;8.40;99.90
12470;DHT22;36499;46.484;13.832;2023-05-10T02:42:21;8.40;99.90
12470;DHT22;36499;46.484;13.832;2023-05-10T02:44:54;8.30;99.90
12470;DHT22;36499;46.484;13.832;2023-05-10T02:47:28;8.30;99.90
12470;DHT22;36499;46.484;13.832;2023-05-10T02:49:55;8.30;99.90
12470;DHT22;36499;46.484;13.832;2023-05-10T02:52:27;8.30;99.90
12470;DHT22;36499;46.484;13.832;2023-05-10T02:55:00;8.30;99.90
12470;DHT22;36499;46.484;13.832;2023-05-10T02:57:32;8.30;99.90
12470;DHT22;36499;46.484;13.832;2023-05-10T03:00:01;8.30;99.90
12470;DHT22;36499;46.484;13.832;2023-05-10T03:02:29;8.30;99.90
12470;DHT22;36499;46.484;13.832;2023-05-10T03:04:56;8.30;99.90
12470;DHT22;36499;46.484;13.832;2023-05-10T03:07:24;8.30;99.90
12470;DHT22;36499;46.484;13.832;2023-05-10T03:09:52;8.20;99.90
12470;DHT22;36499;46.484;13.832;2023-05-10T03:12:26;8.20;99.90
12470;DHT22;36499;46.484;13.832;2023-05-10T03:15:05;8.20;99.90
12470;DHT22;36499;46.484;13.832;2023-05-10T03:17:46;8.10;99.90
12470;DHT22;36499;46.484;13.832;2023-05-10T03:20:22;8.10;99.90
12470;DHT22;36499;46.484;13.832;2023-05-10T03:23:02;8.10;99.90
12470;DHT22;36499;46.484;13.832;2023-05-10T03:25:34;8.00;99.90
12470;DHT22;36499;46.484;13.832;2023-05-10T03:28:03;7.90;99.90
12470;DHT22;36499;46.484;13.832;2023-05-10T03:30:31;7.90;99.90
12470;DHT22;36499;46.484;13.832;2023-05-10T03:33:04;7.80;99.90
12470;DHT22;36499;46.484;13.832;2023-05-10T03:35:32;7.80;99.90
12470;DHT22;36499;46.484;13.832;2023-05-10T03:38:00;7.70;99.90
12470;DHT22;36499;46.484;13.832;2023-05-10T03:40:28;7.70;99.90
12470;DHT22;36499;46.484;13.832;2023-05-10T03:42:57;7.70;99.90
12470;DHT22;36499;46.484;13.832;2023-05-10T03:45:24;7.60;99.90
12470;DHT22;36499;46.484;13.832;2023-05-10T03:47:51;7.60;99.90
12470;DHT22;36499;46.484;13.832;2023-05-10T03:50:19;7.60;99.90
12470;DHT22;36499;46.484;13.832;2023-05-10T03:52:46;7.50;99.90
12470;DHT22;36499;46.484;13.832;2023-05-10T03:55:15;7.50;99.90
12470;DHT22;36499;46.484;13.832;2023-05-10T03:57:42;7.50;99.90
12470;DHT22;36499;46.484;13.832;2023-05-10T04:00:10;7.50;99.90
12470;DHT22;36499;46.484;13.832;2023-05-10T04:02:38;7.50;99.90
12470;DHT22;36499;46.484;13.832;2023-05-10T04:05:05;7.50;99.90
12470;DHT22;36499;46.484;13.832;2023-05-10T04:07:33;7.50;99.90
12470;DHT22;36499;46.484;13.832;2023-05-10T04:10:00;7.60;99.90
12470;DHT22;36499;46.484;13.832;2023-05-10T04:12:28;7.60;99.90
12470;DHT22;36499;46.484;13.832;2023-05-10T04:14:55;7.50;99.90
12470;DHT22;36499;46.484;13.832;2023-05-10T04:17:22;7.50;99.90
12470;DHT22;36499;46.484;13.832;2023-05-10T04:19:49;7.60;99.90
12470;DHT22;36499;46.484;13.832;2023-05-10T04:22:18;7.60;99.90
12470;DHT22;36499;46.484;13.832;2023-05-10T04:24:45;7.60;99.90
12470;DHT22;36499;46.484;13.832;2023-05-10T04:27:12;7.60;99.90
12470;DHT22;36499;46.484;13.832;2023-05-10T04:29:41;7.60;99.90
12470;DHT22;36499;46.484;13.832;2023-05-10T04:32:08;7.70;99.90
12470;DHT22;36499;46.484;13.832;2023-05-10T04:34:36;7.60;99.90
12470;DHT22;36499;46.484;13.832;2023-05-10T04:37:03;7.50;99.90
12470;DHT22;36499;46.484;13.832;2023-05-10T04:39:30;7.50;99.90
12470;DHT22;36499;46.484;13.832;2023-05-10T04:41:57;7.50;99.90
12470;DHT22;36499;46.484;13.832;2023-05-10T04:44:24;7.60;99.90
12470;DHT22;36499;46.484;13.832;2023-05-10T04:46:53;7.60;99.90
12470;DHT22;36499;46.484;13.832;2023-05-10T04:49:20;7.60;99.90
12470;DHT22;36499;46.484;13.832;2023-05-10T04:51:47;7.60;99.90
12470;DHT22;36499;46.484;13.832;2023-05-10T04:54:14;7.60;99.90
12470;DHT22;36499;46.484;13.832;2023-05-10T04:56:41;7.60;99.90
12470;DHT22;36499;46.484;13.832;2023-05-10T04:59:08;7.70;99.90
12470;DHT22;36499;46.484;13.832;2023-05-10T05:01:35;7.70;99.90
12470;DHT22;36499;46.484;13.832;2023-05-10T05:04:04;7.80;99.90
12470;DHT22;36499;46.484;13.832;2023-05-10T05:06:31;7.90;99.90
12470;DHT22;36499;46.484;13.832;2023-05-10T05:08:58;8.00;99.90
12470;DHT22;36499;46.484;13.832;2023-05-10T05:11:25;8.10;99.90
12470;DHT22;36499;46.484;13.832;2023-05-10T05:13:52;8.20;99.90
12470;DHT22;36499;46.484;13.832;2023-05-10T05:16:19;8.20;99.90
12470;DHT22;36499;46.484;13.832;2023-05-10T05:18:46;8.30;99.90
12470;DHT22;36499;46.484;13.832;2023-05-10T05:21:15;8.40;99.90
12470;DHT22;36499;46.484;13.832;2023-05-10T05:23:43;8.40;99.90
12470;DHT22;36499;46.484;13.832;2023-05-10T05:26:10;8.50;99.90
12470;DHT22;36499;46.484;13.832;2023-05-10T05:28:38;8.50;99.90
12470;DHT22;36499;46.484;13.832;2023-05-10T05:31:05;8.60;99.90
12470;DHT22;36499;46.484;13.832;2023-05-10T05:33:33;8.60;99.90
12470;DHT22;36499;46.484;13.832;2023-05-10T05:36:01;8.60;99.90
12470;DHT22;36499;46.484;13.832;2023-05-10T05:38:30;8.70;99.90
12470;DHT22;36499;46.484;13.832;2023-05-10T05:40:57;8.70;99.90
12470;DHT22;36499;46.484;13.832;2023-05-10T05:43:24;8.90;99.90
12470;DHT22;36499;46.484;13.832;2023-05-10T05:45:52;9.10;99.90
12470;DHT22;36499;46.484;13.832;2023-05-10T05:48:19;9.40;99.90
12470;DHT22;36499;46.484;13.832;2023-05-10T05:50:46;9.50;99.90
12470;DHT22;36499;46.484;13.832;2023-05-10T05:53:13;9.50;99.90
12470;DHT22;36499;46.484;13.832;2023-05-10T05:55:51;9.50;99.90
12470;DHT22;36499;46.484;13.832;2023-05-10T05:58:19;9.60;99.90
12470;DHT22;36499;46.484;13.832;2023-05-10T06:00:46;9.70;99.90
12470;DHT22;36499;46.484;13.832;2023-05-10T06:03:13;9.80;99.90
12470;DHT22;36499;46.484;13.832;2023-05-10T06:05:40;9.90;99.90
12470;DHT22;36499;46.484;13.832;2023-05-10T06:08:07;9.90;99.90
12470;DHT22;36499;46.484;13.832;2023-05-10T06:10:35;9.80;99.90
12470;DHT22;36499;46.484;13.832;2023-05-10T06:13:03;9.70;99.90
12470;DHT22;36499;46.484;13.832;2023-05-10T06:15:30;9.70;99.90
12470;DHT22;36499;46.484;13.832;2023-05-10T06:17:58;9.80;99.90
12470;DHT22;36499;46.484;13.832;2023-05-10T06:20:25;9.80;99.90
12470;DHT22;36499;46.484;13.832;2023-05-10T06:22:52;9.80;99.90
12470;DHT22;36499;46.484;13.832;2023-05-10T06:25:19;9.90;99.90
12470;DHT22;36499;46.484;13.832;2023-05-10T06:27:46;9.90;99.90
12470;DHT22;36499;46.484;13.832;2023-05-10T06:30:15;9.90;99.90
12470;DHT22;36499;46.484;13.832;2023-05-10T06:32:42;10.00;99.90
12470;DHT22;36499;46.484;13.832;2023-05-10T06:35:10;10.00;99.90
12470;DHT22;36499;46.484;13.832;2023-05-10T06:37:37;10.00;99.90
12470;DHT22;36499;46.484;13.832;2023-05-10T06:40:06;9.90;99.90
12470;DHT22;36499;46.484;13.832;2023-05-10T06:42:34;9.90;99.90
12470;DHT22;36499;46.484;13.832;2023-05-10T06:45:01;10.00;99.90
12470;DHT22;36499;46.484;13.832;2023-05-10T06:47:30;10.00;99.90
12470;DHT22;36499;46.484;13.832;2023-05-10T06:49:57;10.00;99.90
12470;DHT22;36499;46.484;13.832;2023-05-10T06:52:24;10.00;99.90
12470;DHT22;36499;46.484;13.832;2023-05-10T06:54:51;10.00;99.90
12470;DHT22;36499;46.484;13.832;2023-05-10T06:57:18;10.10;99.90
12470;DHT22;36499;46.484;13.832;2023-05-10T06:59:46;10.10;99.90
12470;DHT22;36499;46.484;13.832;2023-05-10T07:02:13;10.10;99.90
12470;DHT22;36499;46.484;13.832;2023-05-10T07:04:41;10.10;99.90
12470;DHT22;36499;46.484;13.832;2023-05-10T07:07:09;10.10;99.90
12470;DHT22;36499;46.484;13.832;2023-05-10T07:09:36;10.10;99.90
12470;DHT22;36499;46.484;13.832;2023-05-10T07:12:03;10.20;99.90
12470;DHT22;36499;46.484;13.832;2023-05-10T07:14:30;10.30;99.90
12470;DHT22;36499;46.484;13.832;2023-05-10T07:16:57;10.30;99.90
12470;DHT22;36499;46.484;13.832;2023-05-10T07:19:24;10.30;99.90
12470;DHT22;36499;46.484;13.832;2023-05-10T07:21:53;10.40;99.90
12470;DHT22;36499;46.484;13.832;2023-05-10T07:24:20;10.40;99.90
12470;DHT22;36499;46.484;13.832;2023-05-10T07:26:48;10.40;99.90
12470;DHT22;36499;46.484;13.832;2023-05-10T07:29:15;10.40;99.90
12470;DHT22;36499;46.484;13.832;2023-05-10T07:31:42;10.50;99.90
12470;DHT22;36499;46.484;13.832;2023-05-10T07:34:09;10.50;99.90
12470;DHT22;36499;46.484;13.832;2023-05-10T07:36:36;10.50;99.90
12470;DHT22;36499;46.484;13.832;2023-05-10T07:39:05;10.40;99.90
12470;DHT22;36499;46.484;13.832;2023-05-10T07:41:32;10.50;99.90
12470;DHT22;36499;46.484;13.832;2023-05-10T07:43:59;10.40;99.90
12470;DHT22;36499;46.484;13.832;2023-05-10T07:46:26;10.50;99.90
12470;DHT22;36499;46.484;13.832;2023-05-10T07:48:53;10.60;99.90
12470;DHT22;36499;46.484;13.832;2023-05-10T07:51:20;10.60;99.90
12470;DHT22;36499;46.484;13.832;2023-05-10T07:53:48;10.70;99.90
12470;DHT22;36499;46.484;13.832;2023-05-10T07:56:24;10.70;99.90
12470;DHT22;36499;46.484;13.832;2023-05-10T07:58:55;10.70;99.90
12470;DHT22;36499;46.484;13.832;2023-05-10T08:01:23;10.80;99.90
12470;DHT22;36499;46.484;13.832;2023-05-10T08:03:50;10.90;99.90
12470;DHT22;36499;46.484;13.832;2023-05-10T08:06:19;11.00;99.90
12470;DHT22;36499;46.484;13.832;2023-05-10T08:08:47;11.10;99.90
12470;DHT22;36499;46.484;13.832;2023-05-10T08:11:16;11.10;99.90
12470;DHT22;36499;46.484;13.832;2023-05-10T08:13:45;11.20;99.90
12470;DHT22;36499;46.484;13.832;2023-05-10T08:16:12;11.30;99.90
12470;DHT22;36499;46.484;13.832;2023-05-10T08:18:39;11.40;99.90
12470;DHT22;36499;46.484;13.832;2023-05-10T08:21:06;11.50;99.90
12470;DHT22;36499;46.484;13.832;2023-05-10T08:23:34;11.60;99.90
12470;DHT22;36499;46.484;13.832;2023-05-10T08:26:01;11.70;99.90
12470;DHT22;36499;46.484;13.832;2023-05-10T08:28:28;11.70;99.90
12470;DHT22;36499;46.484;13.832;2023-05-10T08:30:57;11.70;99.90
12470;DHT22;36499;46.484;13.832;2023-05-10T08:33:24;11.80;99.90
12470;DHT22;36499;46.484;13.832;2023-05-10T08:35:51;11.80;99.90
12470;DHT22;36499;46.484;13.832;2023-05-10T08:38:18;11.80;99.90
12470;DHT22;36499;46.484;13.832;2023-05-10T08:40:47;11.90;99.90
12470;DHT22;36499;46.484;13.832;2023-05-10T08:43:16;12.00;99.90
12470;DHT22;36499;46.484;13.832;2023-05-10T08:45:44;12.10;99.90
12470;DHT22;36499;46.484;13.832;2023-05-10T08:48:14;12.20;99.90
12470;DHT22;36499;46.484;13.832;2023-05-10T08:50:42;12.30;99.90
12470;DHT22;36499;46.484;13.832;2023-05-10T08:53:13;12.30;99.90
12470;DHT22;36499;46.484;13.832;2023-05-10T08:55:42;12.30;99.90
12470;DHT22;36499;46.484;13.832;2023-05-10T08:58:09;12.30;99.90
12470;DHT22;36499;46.484;13.832;2023-05-10T09:00:36;12.30;99.90
12470;DHT22;36499;46.484;13.832;2023-05-10T09:03:04;12.30;99.90
12470;DHT22;36499;46.484;13.832;2023-05-10T09:05:33;12.20;99.90
12470;DHT22;36499;46.484;13.832;2023-05-10T09:08:03;12.30;99.90
12470;DHT22;36499;46.484;13.832;2023-05-10T09:10:31;12.30;99.90
12470;DHT22;36499;46.484;13.832;2023-05-10T09:12:59;12.30;99.90
12470;DHT22;36499;46.484;13.832;2023-05-10T09:15:26;12.40;99.90
12470;DHT22;36499;46.484;13.832;2023-05-10T09:17:54;12.40;99.90
12470;DHT22;36499;46.484;13.832;2023-05-10T09:20:24;12.40;99.90
12470;DHT22;36499;46.484;13.832;2023-05-10T09:22:52;12.50;99.90
12470;DHT22;36499;46.484;13.832;2023-05-10T09:25:20;12.50;99.90
12470;DHT22;36499;46.484;13.832;2023-05-10T09:27:48;12.60;99.90
12470;DHT22;36499;46.484;13.832;2023-05-10T09:30:16;12.70;99.90
12470;DHT22;36499;46.484;13.832;2023-05-10T09:32:49;12.70;99.90
12470;DHT22;36499;46.484;13.832;2023-05-10T09:35:18;12.60;99.90
12470;DHT22;36499;46.484;13.832;2023-05-10T09:37:48;12.60;99.90
12470;DHT22;36499;46.484;13.832;2023-05-10T09:40:19;12.60;99.90
12470;DHT22;36499;46.484;13.832;2023-05-10T09:42:52;12.80;99.90
12470;DHT22;36499;46.484;13.832;2023-05-10T09:45:20;12.90;99.90
12470;DHT22;36499;46.484;13.832;2023-05-10T09:47:48;13.00;99.90
12470;DHT22;36499;46.484;13.832;2023-05-10T09:50:15;13.00;99.90
12470;DHT22;36499;46.484;13.832;2023-05-10T09:52:50;13.10;99.90
12470;DHT22;36499;46.484;13.832;2023-05-10T09:55:21;13.10;99.90
12470;DHT22;36499;46.484;13.832;2023-05-10T09:57:58;13.10;99.90
12470;DHT22;36499;46.484;13.832;2023-05-10T10:00:27;13.00;99.90
12470;DHT22;36499;46.484;13.832;2023-05-10T10:02:56;13.00;99.90
12470;DHT22;36499;46.484;13.832;2023-05-10T10:05:28;12.90;99.90
12470;DHT22;36499;46.484;13.832;2023-05-10T10:07:57;12.80;99.90
12470;DHT22;36499;46.484;13.832;2023-05-10T10:10:26;12.70;99.90
12470;DHT22;36499;46.484;13.832;2023-05-10T10:12:55;12.70;99.90
12470;DHT22;36499;46.484;13.832;2023-05-10T10:15:23;12.70;99.90
12470;DHT22;36499;46.484;13.832;2023-05-10T10:17:51;12.60;99.90
12470;DHT22;36499;46.484;13.832;2023-05-10T10:20:22;12.60;99.90
12470;DHT22;36499;46.484;13.832;2023-05-10T10:22:50;12.60;99.90
12470;DHT22;36499;46.484;13.832;2023-05-10T10:25:19;12.60;99.90
12470;DHT22;36499;46.484;13.832;2023-05-10T10:28:08;12.60;99.90
12470;DHT22;36499;46.484;13.832;2023-05-10T10:30:46;12.60;99.90
12470;DHT22;36499;46.484;13.832;2023-05-10T10:33:36;12.60;99.90
12470;DHT22;36499;46.484;13.832;2023-05-10T10:36:16;12.70;99.90
12470;DHT22;36499;46.484;13.832;2023-05-10T10:38:56;12.60;99.90
12470;DHT22;36499;46.484;13.832;2023-05-10T10:41:31;12.60;99.90
12470;DHT22;36499;46.484;13.832;2023-05-10T10:47:22;12.50;99.90
12470;DHT22;36499;46.484;13.832;2023-05-10T10:50:02;12.40;99.90
12470;DHT22;36499;46.484;13.832;2023-05-10T10:52:32;12.40;99.90
12470;DHT22;36499;46.484;13.832;2023-05-10T10:55:01;12.40;99.90
12470;DHT22;36499;46.484;13.832;2023-05-10T10:57:43;12.40;99.90
12470;DHT22;36499;46.484;13.832;2023-05-10T11:00:37;12.50;99.90
12470;DHT22;36499;46.484;13.832;2023-05-10T11:03:07;12.60;99.90
12470;DHT22;36499;46.484;13.832;2023-05-10T11:05:40;12.70;99.90
12470;DHT22;36499;46.484;13.832;2023-05-10T11:08:13;12.70;99.90
12470;DHT22;36499;46.484;13.832;2023-05-10T11:11:03;12.80;99.90
12470;DHT22;36499;46.484;13.832;2023-05-10T11:13:34;12.90;99.90
12470;DHT22;36499;46.484;13.832;2023-05-10T11:16:19;13.00;99.90
12470;DHT22;36499;46.484;13.832;2023-05-10T11:18:59;13.00;99.90
12470;DHT22;36499;46.484;13.832;2023-05-10T11:21:28;13.00;99.90
12470;DHT22;36499;46.484;13.832;2023-05-10T11:23:57;13.00;99.90
12470;DHT22;36499;46.484;13.832;2023-05-10T11:26:30;12.90;99.90
12470;DHT22;36499;46.484;13.832;2023-05-10T11:28:59;12.90;99.90
12470;DHT22;36499;46.484;13.832;2023-05-10T11:31:29;12.90;99.90
12470;DHT22;36499;46.484;13.832;2023-05-10T11:33:58;12.90;99.90
12470;DHT22;36499;46.484;13.832;2023-05-10T11:36:28;12.90;99.90
12470;DHT22;36499;46.484;13.832;2023-05-10T11:38:59;12.90;99.90
12470;DHT22;36499;46.484;13.832;2023-05-10T11:41:28;12.90;99.90
12470;DHT22;36499;46.484;13.832;2023-05-10T11:43:58;13.00;99.90
12470;DHT22;36499;46.484;13.832;2023-05-10T11:46:27;13.00;99.90
12470;DHT22;36499;46.484;13.832;2023-05-10T11:48:57;13.10;99.90
12470;DHT22;36499;46.484;13.832;2023-05-10T11:51:32;13.10;99.90
12470;DHT22;36499;46.484;13.832;2023-05-10T11:54:01;13.00;99.90
12470;DHT22;36499;46.484;13.832;2023-05-10T11:56:32;13.00;99.90
12470;DHT22;36499;46.484;13.832;2023-05-10T11:59:00;12.80;99.90
12470;DHT22;36499;46.484;13.832;2023-05-10T12:01:30;12.80;99.90
12470;DHT22;36499;46.484;13.832;2023-05-10T12:03:58;12.60;99.90
12470;DHT22;36499;46.484;13.832;2023-05-10T12:06:26;12.40;99.90
12470;DHT22;36499;46.484;13.832;2023-05-10T12:08:55;12.40;99.90
12470;DHT22;36499;46.484;13.832;2023-05-10T12:11:25;12.30;99.90
12470;DHT22;36499;46.484;13.832;2023-05-10T12:13:53;12.20;99.90
12470;DHT22;36499;46.484;13.832;2023-05-10T12:16:23;12.20;99.90
12470;DHT22;36499;46.484;13.832;2023-05-10T12:18:55;12.10;99.90
12470;DHT22;36499;46.484;13.832;2023-05-10T12:21:24;12.00;99.90
12470;DHT22;36499;46.484;13.832;2023-05-10T12:23:52;11.90;99.90
12470;DHT22;36499;46.484;13.832;2023-05-10T12:26:22;11.80;99.90
12470;DHT22;36499;46.484;13.832;2023-05-10T12:28:50;11.90;99.90
12470;DHT22;36499;46.484;13.832;2023-05-10T12:31:17;11.80;99.90
12470;DHT22;36499;46.484;13.832;2023-05-10T12:33:44;11.80;99.90
12470;DHT22;36499;46.484;13.832;2023-05-10T12:36:15;11.80;99.90
12470;DHT22;36499;46.484;13.832;2023-05-10T12:38:44;11.90;99.90
12470;DHT22;36499;46.484;13.832;2023-05-10T12:41:15;11.90;99.90
12470;DHT22;36499;46.484;13.832;2023-05-10T12:43:43;11.80;99.90
12470;DHT22;36499;46.484;13.832;2023-05-10T12:46:12;11.80;99.90
12470;DHT22;36499;46.484;13.832;2023-05-10T12:48:41;11.90;99.90
12470;DHT22;36499;46.484;13.832;2023-05-10T12:51:10;11.90;99.90
12470;DHT22;36499;46.484;13.832;2023-05-10T12:53:42;11.90;99.90
12470;DHT22;36499;46.484;13.832;2023-05-10T12:56:11;11.90;99.90
12470;DHT22;36499;46.484;13.832;2023-05-10T12:58:38;12.00;99.90
12470;DHT22;36499;46.484;13.832;2023-05-10T13:01:06;11.90;99.90
12470;DHT22;36499;46.484;13.832;2023-05-10T13:03:33;11.90;99.90
12470;DHT22;36499;46.484;13.832;2023-05-10T13:06:00;11.90;99.90
12470;DHT22;36499;46.484;13.832;2023-05-10T13:08:27;11.80;99.90
12470;DHT22;36499;46.484;13.832;2023-05-10T13:11:00;11.80;99.90
12470;DHT22;36499;46.484;13.832;2023-05-10T13:13:27;11.80;99.90
12470;DHT22;36499;46.484;13.832;2023-05-10T13:15:54;11.90;99.90
12470;DHT22;36499;46.484;13.832;2023-05-10T13:18:21;11.90;99.90
12470;DHT22;36499;46.484;13.832;2023-05-10T13:20:49;12.00;99.90
12470;DHT22;36499;46.484;13.832;2023-05-10T13:23:16;12.10;99.90
12470;DHT22;36499;46.484;13.832;2023-05-10T13:25:43;12.00;99.90
12470;DHT22;36499;46.484;13.832;2023-05-10T13:28:12;11.90;99.90
12470;DHT22;36499;46.484;13.832;2023-05-10T13:30:39;11.90;99.90
12470;DHT22;36499;46.484;13.832;2023-05-10T13:33:06;11.80;99.90
12470;DHT22;36499;46.484;13.832;2023-05-10T13:35:33;11.70;99.90
12470;DHT22;36499;46.484;13.832;2023-05-10T13:38:00;11.70;99.90
12470;DHT22;36499;46.484;13.832;2023-05-10T13:40:27;11.70;99.90
12470;DHT22;36499;46.484;13.832;2023-05-10T13:42:54;11.70;99.90
12470;DHT22;36499;46.484;13.832;2023-05-10T13:45:23;11.60;99.90
12470;DHT22;36499;46.484;13.832;2023-05-10T13:47:50;11.60;99.90
12470;DHT22;36499;46.484;13.832;2023-05-10T13:50:17;11.40;99.90
12470;DHT22;36499;46.484;13.832;2023-05-10T13:52:44;11.30;99.90
12470;DHT22;36499;46.484;13.832;2023-05-10T13:55:12;11.30;99.90
12470;DHT22;36499;46.484;13.832;2023-05-10T13:57:39;11.30;99.90
12470;DHT22;36499;46.484;13.832;2023-05-10T14:00:09;11.30;99.90
12470;DHT22;36499;46.484;13.832;2023-05-10T14:02:38;11.20;99.90
12470;DHT22;36499;46.484;13.832;2023-05-10T14:05:06;11.20;99.90
12470;DHT22;36499;46.484;13.832;2023-05-10T14:07:33;11.10;99.90
12470;DHT22;36499;46.484;13.832;2023-05-10T14:10:02;11.10;99.90
12470;DHT22;36499;46.484;13.832;2023-05-10T14:12:29;11.10;99.90
12470;DHT22;36499;46.484;13.832;2023-05-10T14:14:56;11.10;99.90
12470;DHT22;36499;46.484;13.832;2023-05-10T14:17:24;11.20;99.90
12470;DHT22;36499;46.484;13.832;2023-05-10T14:19:52;11.10;99.90
12470;DHT22;36499;46.484;13.832;2023-05-10T14:22:19;11.10;99.90
12470;DHT22;36499;46.484;13.832;2023-05-10T14:24:47;11.10;99.90
12470;DHT22;36499;46.484;13.832;2023-05-10T14:27:14;11.10;99.90
12470;DHT22;36499;46.484;13.832;2023-05-10T14:29:41;11.10;99.90
12470;DHT22;36499;46.484;13.832;2023-05-10T14:32:08;11.00;99.90
12470;DHT22;36499;46.484;13.832;2023-05-10T14:34:35;11.00;99.90
12470;DHT22;36499;46.484;13.832;2023-05-10T14:37:04;11.00;99.90
12470;DHT22;36499;46.484;13.832;2023-05-10T14:39:31;10.90;99.90
12470;DHT22;36499;46.484;13.832;2023-05-10T14:41:58;10.90;99.90
12470;DHT22;36499;46.484;13.832;2023-05-10T14:44:25;10.70;99.90
12470;DHT22;36499;46.484;13.832;2023-05-10T14:46:53;10.70;99.90
12470;DHT22;36499;46.484;13.832;2023-05-10T14:49:20;10.70;99.90
12470;DHT22;36499;46.484;13.832;2023-05-10T14:51:51;10.60;99.90
12470;DHT22;36499;46.484;13.832;2023-05-10T14:54:19;10.60;99.90
12470;DHT22;36499;46.484;13.832;2023-05-10T14:56:46;10.60;99.90
12470;DHT22;36499;46.484;13.832;2023-05-10T14:59:15;10.70;99.90
12470;DHT22;36499;46.484;13.832;2023-05-10T15:01:42;10.70;99.90
12470;DHT22;36499;46.484;13.832;2023-05-10T15:04:09;10.70;99.90
12470;DHT22;36499;46.484;13.832;2023-05-10T15:06:38;10.70;99.90
12470;DHT22;36499;46.484;13.832;2023-05-10T15:09:05;10.70;99.90
12470;DHT22;36499;46.484;13.832;2023-05-10T15:11:34;10.70;99.90
12470;DHT22;36499;46.484;13.832;2023-05-10T15:14:01;10.70;99.90
12470;DHT22;36499;46.484;13.832;2023-05-10T15:16:28;10.70;99.90
12470;DHT22;36499;46.484;13.832;2023-05-10T15:18:55;10.80;99.90
12470;DHT22;36499;46.484;13.832;2023-05-10T15:21:22;10.70;99.90
12470;DHT22;36499;46.484;13.832;2023-05-10T15:23:49;10.70;99.90
12470;DHT22;36499;46.484;13.832;2023-05-10T15:26:16;10.70;99.90
12470;DHT22;36499;46.484;13.832;2023-05-10T15:28:45;10.60;99.90
12470;DHT22;36499;46.484;13.832;2023-05-10T15:31:12;10.60;99.90
12470;DHT22;36499;46.484;13.832;2023-05-10T15:33:39;10.60;99.90
12470;DHT22;36499;46.484;13.832;2023-05-10T15:36:06;10.60;99.90
12470;DHT22;36499;46.484;13.832;2023-05-10T15:38:33;10.60;99.90